Time;durP1;ratioP1;P1;durP2;ratioP2;P2;SDS_P1;SDS_P2;PMS_P1;PMS_P2;Temp;Humidity;BMP_temperature;BMP_pressure;BME280_temperature;BME280_humidity;BME280_pressure;Samples;Min_cycle;Max_cycle;Signal;HPM_P1;HPM_P2
2023/05/02 00:00:27;;;;;;;299.10;281.40;;;9.20;54.90;;;;;;5052744;28;20858;-70
2023/05/02 00:02:53;;;;;;;408.33;386.60;;;9.20;54.90;;;;;;5052117;28;20777;-70
2023/05/02 00:05:19;;;;;;;155.43;142.97;;;9.20;54.70;;;;;;5052315;28;20420;-70
2023/05/02 00:07:44;;;;;;;237.40;221.83;;;9.10;55.10;;;;;;5050848;28;20214;-70
2023/05/02 00:10:10;;;;;;;250.20;234.17;;;9.10;55.00;;;;;;5052457;28;20204;-71
2023/05/02 00:12:36;;;;;;;322.27;304.10;;;9.10;54.90;;;;;;5051960;28;20177;-70
2023/05/02 00:15:01;;;;;;;223.83;208.80;;;9.10;54.60;;;;;;5046198;28;20178;-70
2023/05/02 00:17:27;;;;;;;260.30;244.13;;;9.00;55.10;;;;;;5040536;28;20276;-69
2023/05/02 00:19:52;;;;;;;407.80;385.83;;;9.00;54.80;;;;;;5041479;28;20655;-69
2023/05/02 00:22:18;;;;;;;334.60;315.90;;;8.90;54.70;;;;;;5042752;28;20197;-69
2023/05/02 00:24:44;;;;;;;399.03;378.10;;;8.90;54.90;;;;;;5043503;28;20248;-70
2023/05/02 00:27:10;;;;;;;355.30;335.87;;;8.90;54.90;;;;;;5040530;28;20438;-70
2023/05/02 00:29:35;;;;;;;243.20;228.00;;;8.80;55.00;;;;;;5042288;28;20220;-69
2023/05/02 00:32:01;;;;;;;180.97;167.40;;;8.80;55.00;;;;;;5040172;28;20186;-70
2023/05/02 00:34:30;;;;;;;215.87;200.87;;;8.70;55.60;;;;;;5039404;28;20186;-69
2023/05/02 00:36:56;;;;;;;286.93;269.60;;;8.70;55.40;;;;;;5040881;28;20720;-69
2023/05/02 00:39:21;;;;;;;197.30;183.73;;;8.60;55.40;;;;;;5040087;28;20411;-70
2023/05/02 00:41:47;;;;;;;395.77;374.87;;;8.60;56.00;;;;;;5042329;28;20223;-70
2023/05/02 00:44:12;;;;;;;313.83;295.57;;;8.60;55.90;;;;;;5040532;28;20174;-69
2023/05/02 00:46:38;;;;;;;173.80;160.43;;;8.60;56.10;;;;;;5041319;28;20240;-69
2023/05/02 00:49:03;;;;;;;427.53;400.77;;;8.50;55.70;;;;;;5042142;28;20187;-69
2023/05/02 00:51:31;;;;;;;244.80;229.30;;;8.50;56.00;;;;;;5038851;28;20306;-70
2023/05/02 00:53:57;;;;;;;140.50;128.43;;;8.40;55.90;;;;;;5051661;28;20185;-69
2023/05/02 00:56:23;;;;;;;342.13;319.97;;;8.40;55.90;;;;;;5051514;28;20474;-69
2023/05/02 00:58:48;;;;;;;206.33;191.83;;;8.30;55.80;;;;;;5051681;28;20406;-69
2023/05/02 01:01:39;;;;;;;309.17;291.43;;;8.30;55.80;;;;;;5041136;28;20170;-70
2023/05/02 01:04:22;;;;;;;210.03;195.67;;;8.30;56.90;;;;;;5041974;28;20176;-69
2023/05/02 01:07:16;;;;;;;184.07;169.77;;;8.20;56.20;;;;;;5042278;28;20515;-70
2023/05/02 01:10:08;;;;;;;247.93;232.27;;;8.20;57.00;;;;;;5051594;28;20484;-70
2023/05/02 01:13:09;;;;;;;326.63;307.77;;;8.20;58.20;;;;;;5051384;28;20487;-69
2023/05/02 01:15:38;;;;;;;158.77;146.40;;;8.10;57.10;;;;;;5051405;28;20460;-70
2023/05/02 01:18:05;;;;;;;400.60;378.80;;;8.10;59.00;;;;;;5050299;28;20545;-70
2023/05/02 01:20:35;;;;;;;233.90;218.30;;;8.10;58.20;;;;;;5050351;28;21029;-69
2023/05/02 01:23:09;;;;;;;218.80;203.93;;;8.00;58.10;;;;;;5050559;28;20928;-69
2023/05/02 01:26:01;;;;;;;141.50;129.10;;;8.00;59.20;;;;;;5051455;28;20487;-70
2023/05/02 01:29:00;;;;;;;307.70;289.70;;;8.00;59.50;;;;;;5050316;28;20480;-70
2023/05/02 01:31:46;;;;;;;260.17;243.83;;;8.00;59.30;;;;;;5050233;28;20516;-70
2023/05/02 01:34:12;;;;;;;297.90;280.03;;;8.00;60.30;;;;;;5050361;28;20950;-70
2023/05/02 01:36:43;;;;;;;297.10;279.77;;;8.00;60.40;;;;;;5051324;28;20461;-70
2023/05/02 01:39:14;;;;;;;389.00;363.77;;;8.00;59.40;;;;;;5050521;28;20177;-71
2023/05/02 01:41:41;;;;;;;212.33;197.60;;;8.00;59.40;;;;;;5051278;28;20418;-70
2023/05/02 01:44:08;;;;;;;313.80;295.53;;;8.00;60.00;;;;;;5054443;28;20787;-70
2023/05/02 01:46:38;;;;;;;244.87;228.53;;;7.90;59.10;;;;;;5053854;28;20881;-70
2023/05/02 01:49:06;;;;;;;282.87;266.00;;;8.00;58.50;;;;;;5053882;28;20422;-70
2023/05/02 01:51:34;;;;;;;370.73;350.67;;;7.90;58.00;;;;;;5055209;28;20414;-71
2023/05/02 01:54:06;;;;;;;133.90;122.17;;;7.90;58.30;;;;;;5054928;28;20454;-70
2023/05/02 01:56:35;;;;;;;167.33;154.17;;;7.80;58.70;;;;;;5053500;28;20520;-70
2023/05/02 01:59:07;;;;;;;90.03;72.83;;;7.80;59.60;;;;;;5055131;28;20446;-70
2023/05/02 02:01:35;;;;;;;165.43;152.63;;;7.80;59.10;;;;;;5054892;28;20436;-71
2023/05/02 02:04:03;;;;;;;100.53;90.03;;;7.80;59.90;;;;;;5055060;28;20417;-70
2023/05/02 02:06:28;;;;;;;166.40;152.90;;;7.90;60.30;;;;;;5055387;28;20434;-70
2023/05/02 02:08:54;;;;;;;163.20;150.20;;;7.90;59.60;;;;;;5054130;28;20510;-70
2023/05/02 02:11:29;;;;;;;338.70;319.87;;;7.90;58.80;;;;;;5054730;28;20230;-70
2023/05/02 02:14:06;;;;;;;292.97;275.57;;;7.90;58.70;;;;;;5054655;28;20171;-69
2023/05/02 02:16:36;;;;;;;300.80;281.30;;;7.90;58.30;;;;;;5054545;28;20436;-70
2023/05/02 02:19:07;;;;;;;201.30;186.03;;;7.80;57.70;;;;;;5053375;28;20432;-69
2023/05/02 02:21:34;;;;;;;290.97;273.60;;;7.80;58.00;;;;;;5053053;28;20778;-70
2023/05/02 02:24:02;;;;;;;281.37;263.83;;;7.80;57.40;;;;;;5053204;28;20422;-69
2023/05/02 02:26:28;;;;;;;302.30;284.20;;;7.70;56.80;;;;;;5054263;28;20809;-70
2023/05/02 02:28:55;;;;;;;332.20;313.10;;;7.70;57.00;;;;;;5054421;28;20414;-71
2023/05/02 02:31:20;;;;;;;339.37;319.97;;;7.60;57.90;;;;;;5054431;28;20175;-70
2023/05/02 02:33:47;;;;;;;128.40;116.67;;;7.60;57.80;;;;;;5054032;28;20506;-70
2023/05/02 02:36:26;;;;;;;277.77;260.73;;;7.60;58.10;;;;;;5052911;28;20207;-71
2023/05/02 02:39:15;;;;;;;219.57;204.40;;;7.50;58.10;;;;;;5054416;28;20933;-70
2023/05/02 02:42:08;;;;;;;141.07;129.17;;;7.50;58.60;;;;;;5054196;28;20415;-69
2023/05/02 02:44:43;;;;;;;357.63;335.20;;;7.50;59.50;;;;;;5054075;28;20417;-69
2023/05/02 02:47:28;;;;;;;97.10;76.83;;;7.50;59.90;;;;;;5053894;28;20472;-70
2023/05/02 02:50:28;;;;;;;164.80;151.47;;;7.40;59.90;;;;;;5054057;28;20425;-70
2023/05/02 02:52:59;;;;;;;331.20;309.40;;;7.40;59.90;;;;;;5053680;28;20421;-70
2023/05/02 02:55:54;;;;;;;80.97;54.73;;;7.30;59.70;;;;;;5052643;28;20417;-70
2023/05/02 02:58:41;;;;;;;278.13;261.03;;;7.20;59.70;;;;;;5053844;28;20465;-70
2023/05/02 03:01:13;;;;;;;217.37;203.07;;;7.20;59.70;;;;;;5052486;28;20426;-70
2023/05/02 03:03:41;;;;;;;165.17;152.07;;;7.20;59.70;;;;;;5053594;28;20452;-70
2023/05/02 03:06:07;;;;;;;319.53;300.30;;;7.20;59.70;;;;;;5053567;28;20950;-70
2023/05/02 03:08:40;;;;;;;159.70;146.67;;;7.20;59.70;;;;;;5053579;28;20456;-70
2023/05/02 03:11:05;;;;;;;314.63;295.33;;;7.10;59.60;;;;;;5053738;28;20183;-70
2023/05/02 03:13:31;;;;;;;133.73;121.77;;;7.10;60.60;;;;;;5053302;28;20482;-70
2023/05/02 03:16:27;;;;;;;310.13;291.40;;;7.10;60.90;;;;;;5053430;28;20205;-70
2023/05/02 03:18:52;;;;;;;206.40;191.53;;;7.10;59.60;;;;;;5049779;28;20202;-70
2023/05/02 03:21:17;;;;;;;280.37;262.20;;;7.10;59.60;;;;;;5053334;28;20433;-69
2023/05/02 03:23:43;;;;;;;297.20;277.23;;;7.00;59.50;;;;;;5053097;28;20183;-70
2023/05/02 03:26:09;;;;;;;385.30;361.23;;;6.90;59.00;;;;;;5053250;28;20202;-70
2023/05/02 03:28:34;;;;;;;139.57;127.93;;;6.90;59.50;;;;;;5053357;28;20171;-70
2023/05/02 03:31:00;;;;;;;606.47;570.40;;;6.90;60.70;;;;;;5053239;28;20181;-70
2023/05/02 03:33:25;;;;;;;520.17;488.60;;;6.90;62.90;;;;;;5052870;28;20179;-70
2023/05/02 03:35:51;;;;;;;616.70;579.73;;;7.00;62.80;;;;;;5053338;28;20194;-70
2023/05/02 03:38:16;;;;;;;129.13;117.97;;;7.10;63.50;;;;;;5053036;28;20203;-70
2023/05/02 03:40:42;;;;;;;250.60;233.70;;;7.20;63.10;;;;;;5051760;28;20175;-70
2023/05/02 03:43:08;;;;;;;239.30;223.53;;;7.20;63.20;;;;;;5052696;28;20171;-70
2023/05/02 03:45:33;;;;;;;168.67;155.10;;;7.20;63.50;;;;;;5051740;28;20207;-70
2023/05/02 03:47:59;;;;;;;331.20;309.57;;;7.20;61.60;;;;;;5052920;28;20190;-69
2023/05/02 03:50:25;;;;;;;403.73;376.87;;;7.20;61.70;;;;;;5052926;28;20178;-70
2023/05/02 03:52:50;;;;;;;463.83;437.13;;;7.20;61.20;;;;;;5052515;28;20175;-70
2023/05/02 03:55:16;;;;;;;112.80;101.97;;;7.20;61.80;;;;;;5052963;28;20230;-70
2023/05/02 03:57:42;;;;;;;633.87;593.57;;;7.20;60.80;;;;;;5052578;28;20229;-72
2023/05/02 04:00:08;;;;;;;209.00;195.07;;;7.20;62.00;;;;;;5052639;28;20411;-70
2023/05/02 04:02:34;;;;;;;174.03;161.03;;;7.20;62.00;;;;;;5052347;28;20180;-70
2023/05/02 04:04:59;;;;;;;495.20;464.53;;;7.30;61.90;;;;;;5050967;28;20425;-70
2023/05/02 04:07:25;;;;;;;488.67;456.57;;;7.30;62.20;;;;;;5052265;28;20579;-70
2023/05/02 04:09:50;;;;;;;256.47;238.63;;;7.40;62.10;;;;;;5052847;28;20195;-70
2023/05/02 04:12:16;;;;;;;172.47;159.33;;;7.50;61.90;;;;;;5050977;28;20546;-70
2023/05/02 04:14:42;;;;;;;499.20;468.47;;;7.60;61.60;;;;;;5052516;28;20178;-72
2023/05/02 04:17:07;;;;;;;221.90;205.83;;;7.70;61.40;;;;;;5052266;28;20329;-70
2023/05/02 04:19:34;;;;;;;237.87;221.67;;;7.70;60.90;;;;;;5051058;28;20193;-70
2023/05/02 04:22:00;;;;;;;275.97;259.07;;;7.80;60.90;;;;;;5050844;28;20206;-70
2023/05/02 04:24:26;;;;;;;648.73;608.07;;;7.80;60.20;;;;;;5052286;28;20410;-70
2023/05/02 04:26:52;;;;;;;623.67;584.47;;;8.00;60.40;;;;;;5052337;28;20797;-70
2023/05/02 04:29:17;;;;;;;303.37;284.53;;;8.00;60.40;;;;;;5051250;28;20264;-70
2023/05/02 04:31:43;;;;;;;223.23;208.67;;;8.10;58.70;;;;;;5052034;28;20263;-70
2023/05/02 04:34:08;;;;;;;236.23;219.97;;;8.20;58.70;;;;;;5050817;28;20246;-69
2023/05/02 04:36:34;;;;;;;556.47;520.50;;;8.20;58.20;;;;;;5052016;28;20479;-70
2023/05/02 04:39:00;;;;;;;325.63;304.77;;;8.30;57.90;;;;;;5050909;28;20688;-70
2023/05/02 04:41:26;;;;;;;723.33;675.30;;;8.40;55.90;;;;;;5051934;28;20214;-70
2023/05/02 04:43:52;;;;;;;814.03;761.53;;;8.50;56.80;;;;;;5051922;28;20173;-70
2023/05/02 04:46:17;;;;;;;104.07;91.43;;;8.60;55.30;;;;;;5062490;22;20512;-73
2023/05/02 04:48:43;;;;;;;103.60;91.43;;;8.60;53.10;;;;;;5012162;28;20183;-73
2023/05/02 04:51:09;;;;;;;246.43;230.10;;;8.70;52.80;;;;;;4994458;28;20182;-73
2023/05/02 04:53:35;;;;;;;112.70;100.97;;;8.70;51.40;;;;;;5011917;28;20543;-73
2023/05/02 04:56:01;;;;;;;341.13;319.63;;;8.80;52.80;;;;;;5011989;28;20632;-72
2023/05/02 04:58:26;;;;;;;306.47;287.57;;;8.80;52.30;;;;;;5011824;28;20461;-72
2023/05/02 05:00:53;;;;;;;119.20;107.17;;;8.80;52.70;;;;;;5012026;28;20175;-72
2023/05/02 05:03:19;;;;;;;700.60;654.93;;;8.90;51.20;;;;;;5011748;28;20179;-73
2023/05/02 05:05:44;;;;;;;283.10;266.03;;;8.90;49.50;;;;;;5012128;28;20414;-73
2023/05/02 05:08:10;;;;;;;120.03;107.83;;;8.90;51.00;;;;;;5011927;28;20264;-73
2023/05/02 05:10:36;;;;;;;305.07;286.60;;;9.00;51.50;;;;;;5011972;28;20229;-71
2023/05/02 05:13:03;;;;;;;186.63;172.03;;;9.00;50.10;;;;;;5011639;28;20269;-72
2023/05/02 05:15:28;;;;;;;102.23;91.47;;;9.10;51.60;;;;;;5011757;28;20278;-72
2023/05/02 05:17:54;;;;;;;249.47;233.20;;;9.20;49.60;;;;;;5012906;28;20915;-71
2023/05/02 05:20:19;;;;;;;149.23;135.73;;;9.20;50.00;;;;;;5014452;28;20228;-71
2023/05/02 05:22:45;;;;;;;301.27;279.83;;;9.30;50.30;;;;;;5015330;28;20175;-71
2023/05/02 05:25:11;;;;;;;292.67;274.30;;;9.50;49.40;;;;;;5015624;28;20647;-70
2023/05/02 05:27:37;;;;;;;189.83;175.47;;;9.60;51.10;;;;;;5015726;28;20595;-72
2023/05/02 05:30:03;;;;;;;272.17;254.87;;;9.90;50.50;;;;;;5015541;28;20222;-71
2023/05/02 05:32:29;;;;;;;165.00;150.93;;;10.10;47.00;;;;;;5015182;28;20429;-71
2023/05/02 05:34:55;;;;;;;257.33;240.97;;;10.30;44.20;;;;;;5015223;28;20413;-75
2023/05/02 05:37:21;;;;;;;99.27;88.63;;;10.50;41.70;;;;;;5015131;28;20261;-72
2023/05/02 05:39:47;;;;;;;339.50;319.53;;;10.70;41.90;;;;;;5015393;28;20538;-71
2023/05/02 05:42:12;;;;;;;308.10;289.60;;;10.90;42.10;;;;;;5014938;28;20417;-72
2023/05/02 05:44:38;;;;;;;257.10;240.67;;;11.50;40.30;;;;;;5015152;28;20410;-70
2023/05/02 05:47:04;;;;;;;167.00;153.50;;;11.80;36.30;;;;;;5015460;28;20240;-71
2023/05/02 05:49:30;;;;;;;247.33;231.40;;;12.20;33.20;;;;;;5015323;28;20179;-71
2023/05/02 05:51:56;;;;;;;205.77;191.47;;;12.60;30.80;;;;;;5015006;28;20521;-70
2023/05/02 05:54:22;;;;;;;220.60;205.60;;;12.70;27.10;;;;;;5015104;28;20476;-70
2023/05/02 05:56:47;;;;;;;146.93;134.87;;;12.60;27.90;;;;;;5015133;28;20580;-71
2023/05/02 05:59:13;;;;;;;310.20;292.47;;;12.60;26.30;;;;;;5015166;28;20579;-71
2023/05/02 06:01:39;;;;;;;292.10;275.40;;;12.50;27.10;;;;;;5014681;28;20188;-72
2023/05/02 06:04:06;;;;;;;253.00;237.10;;;12.50;27.70;;;;;;5015246;28;20208;-71
2023/05/02 06:06:32;;;;;;;297.43;280.83;;;12.50;28.20;;;;;;5015286;28;20426;-70
2023/05/02 06:08:57;;;;;;;242.53;226.70;;;12.60;28.30;;;;;;5015032;28;20404;-71
2023/05/02 06:11:26;;;;;;;285.87;268.73;;;12.70;26.70;;;;;;5015042;28;20614;-70
2023/05/02 06:13:52;;;;;;;224.23;208.37;;;12.80;26.30;;;;;;5014808;28;20176;-72
2023/05/02 06:16:18;;;;;;;283.90;264.17;;;12.80;25.40;;;;;;5014786;28;20492;-71
2023/05/02 06:18:44;;;;;;;239.10;222.73;;;12.90;24.90;;;;;;5014835;28;20791;-71
2023/05/02 06:21:10;;;;;;;183.53;167.67;;;13.20;25.70;;;;;;5014756;28;20201;-71
2023/05/02 06:23:35;;;;;;;304.23;284.27;;;13.50;24.80;;;;;;5014369;28;20454;-73
2023/05/02 06:26:03;;;;;;;292.17;272.70;;;13.70;21.50;;;;;;5014508;28;20570;-71
2023/05/02 06:28:29;;;;;;;339.10;317.60;;;13.60;21.10;;;;;;5014215;28;20215;-72
2023/05/02 06:31:02;;;;;;;296.93;279.40;;;13.40;20.70;;;;;;5014317;28;20417;-70
2023/05/02 06:33:29;;;;;;;236.23;219.33;;;13.50;22.00;;;;;;5013903;28;20415;-72
2023/05/02 06:35:54;;;;;;;253.40;235.90;;;13.70;20.90;;;;;;5014308;28;20434;-71
2023/05/02 06:38:20;;;;;;;241.27;224.60;;;13.90;21.30;;;;;;5014171;28;20458;-71
2023/05/02 06:40:46;;;;;;;668.53;618.77;;;14.20;20.50;;;;;;5010174;28;20268;-71
2023/05/02 06:43:12;;;;;;;232.17;215.97;;;14.10;21.00;;;;;;5005857;28;20852;-71
2023/05/02 06:45:38;;;;;;;251.57;235.37;;;14.10;20.90;;;;;;5004395;28;20183;-71
2023/05/02 06:48:04;;;;;;;217.50;202.90;;;13.80;20.40;;;;;;4996899;28;20424;-72
2023/05/02 06:50:29;;;;;;;300.37;282.43;;;13.60;21.30;;;;;;4998230;28;20422;-74
2023/05/02 06:52:55;;;;;;;236.73;221.40;;;13.60;21.90;;;;;;5009478;28;20218;-70
2023/05/02 06:55:21;;;;;;;234.07;218.87;;;13.70;21.70;;;;;;5008020;28;20200;-68
2023/05/02 06:57:49;;;;;;;289.47;272.13;;;13.60;21.60;;;;;;5009942;28;20595;-71
2023/05/02 07:00:18;;;;;;;298.00;277.37;;;13.60;21.90;;;;;;5010072;28;20419;-69
2023/05/02 07:02:45;;;;;;;315.93;294.47;;;13.30;22.80;;;;;;4990622;28;20432;-68
2023/05/02 07:05:11;;;;;;;259.83;243.97;;;13.40;23.50;;;;;;4989682;28;20959;-67
2023/05/02 07:07:37;;;;;;;243.40;226.13;;;13.60;22.90;;;;;;4990639;28;20521;-67
2023/05/02 07:10:03;;;;;;;271.60;253.37;;;13.90;21.40;;;;;;5003427;28;20290;-68
2023/05/02 07:12:29;;;;;;;679.87;625.67;;;13.80;21.50;;;;;;5007263;28;20513;-68
2023/05/02 07:14:54;;;;;;;254.00;237.30;;;13.70;22.00;;;;;;5007609;28;20512;-66
2023/05/02 07:17:20;;;;;;;244.33;228.83;;;13.70;21.60;;;;;;5004401;28;20271;-69
2023/05/02 07:19:46;;;;;;;227.40;212.13;;;13.70;21.30;;;;;;5009212;28;20192;-69
2023/05/02 07:22:11;;;;;;;228.23;209.90;;;13.60;21.30;;;;;;5007824;28;20191;-68
2023/05/02 07:24:40;;;;;;;274.90;258.67;;;13.50;21.80;;;;;;5008949;28;20186;-68
2023/05/02 07:27:07;;;;;;;237.90;222.17;;;13.40;22.70;;;;;;5008435;28;20570;-68
2023/05/02 07:29:33;;;;;;;272.37;254.83;;;13.30;23.10;;;;;;5009439;28;20846;-71
2023/05/02 07:31:58;;;;;;;276.40;259.53;;;13.20;23.10;;;;;;5008931;28;20477;-71
2023/05/02 07:34:24;;;;;;;248.13;230.93;;;13.20;22.90;;;;;;5012477;28;20202;-70
2023/05/02 07:36:49;;;;;;;207.03;192.63;;;13.20;22.90;;;;;;5013371;28;20261;-71
2023/05/02 07:39:15;;;;;;;257.83;242.03;;;13.20;22.60;;;;;;5012241;28;20772;-70
2023/05/02 07:41:40;;;;;;;204.40;189.77;;;13.00;22.40;;;;;;5012134;28;20183;-70
2023/05/02 07:44:06;;;;;;;278.10;259.83;;;13.40;22.80;;;;;;5006239;28;20813;-69
2023/05/02 07:46:31;;;;;;;220.03;205.33;;;13.60;20.80;;;;;;5010893;28;20356;-70
2023/05/02 07:48:57;;;;;;;178.87;165.10;;;13.70;20.90;;;;;;5011449;28;20562;-70
2023/05/02 07:51:22;;;;;;;213.17;198.67;;;13.70;19.80;;;;;;5007054;28;20643;-71
2023/05/02 07:53:51;;;;;;;200.77;186.93;;;13.60;19.70;;;;;;5012536;28;20181;-70
2023/05/02 07:56:17;;;;;;;203.83;189.73;;;13.70;19.10;;;;;;5012706;28;20189;-70
2023/05/02 07:58:42;;;;;;;216.37;201.90;;;13.70;19.20;;;;;;5012677;28;20556;-70
2023/05/02 08:01:08;;;;;;;245.30;228.70;;;13.50;20.70;;;;;;5012029;28;20254;-69
2023/05/02 08:03:33;;;;;;;180.63;167.83;;;13.50;20.80;;;;;;5010140;28;20640;-70
2023/05/02 08:06:00;;;;;;;229.80;214.73;;;13.60;19.20;;;;;;5012061;28;20689;-69
2023/05/02 08:08:26;;;;;;;223.33;208.23;;;13.90;18.40;;;;;;5010244;28;20182;-70
2023/05/02 08:10:52;;;;;;;130.97;119.20;;;14.00;17.70;;;;;;5011850;28;20840;-72
2023/05/02 08:13:18;;;;;;;135.67;124.20;;;13.80;16.70;;;;;;5011855;28;20510;-70
2023/05/02 08:15:44;;;;;;;161.00;148.07;;;13.70;16.60;;;;;;5012332;28;20637;-71
2023/05/02 08:18:10;;;;;;;646.93;595.00;;;13.80;16.70;;;;;;5004932;28;20203;-70
2023/05/02 08:20:36;;;;;;;657.33;606.37;;;13.90;16.80;;;;;;4992030;28;20466;-70
2023/05/02 08:23:01;;;;;;;815.80;752.50;;;14.00;15.80;;;;;;4992273;28;20180;-70
2023/05/02 08:25:27;;;;;;;567.47;524.63;;;13.90;16.70;;;;;;4992539;28;20175;-71
2023/05/02 08:27:52;;;;;;;485.60;451.77;;;14.00;16.80;;;;;;4992477;28;20196;-71
2023/05/02 08:30:18;;;;;;;810.90;748.13;;;14.10;16.50;;;;;;4992487;28;20172;-72
2023/05/02 08:32:45;;;;;;;605.87;561.33;;;14.20;16.40;;;;;;5010953;28;20274;-72
2023/05/02 08:35:12;;;;;;;687.40;636.50;;;13.90;16.70;;;;;;5012169;28;20186;-71
2023/05/02 08:37:38;;;;;;;414.37;380.57;;;13.80;17.00;;;;;;5009975;28;20899;-70
2023/05/02 08:40:04;;;;;;;590.07;547.07;;;13.80;18.00;;;;;;5007432;28;20829;-70
2023/05/02 08:42:32;;;;;;;793.90;732.17;;;13.90;17.30;;;;;;4995385;28;20812;-70
2023/05/02 08:44:58;;;;;;;333.63;307.80;;;13.70;16.60;;;;;;4992450;28;20418;-71
2023/05/02 08:47:25;;;;;;;605.60;560.13;;;13.80;17.70;;;;;;4990845;28;20473;-70
2023/05/02 08:49:54;;;;;;;621.40;573.83;;;13.90;16.70;;;;;;4992304;28;20238;-70
2023/05/02 08:52:20;;;;;;;625.67;576.47;;;14.00;16.80;;;;;;4991595;28;20985;-70
2023/05/02 08:54:48;;;;;;;768.13;710.10;;;13.90;17.40;;;;;;4990409;28;20408;-70
2023/05/02 08:57:13;;;;;;;438.63;405.50;;;14.20;17.00;;;;;;4992295;28;20469;-70
2023/05/02 08:59:41;;;;;;;713.93;658.93;;;14.40;16.50;;;;;;4992158;28;20428;-70
2023/05/02 09:02:22;;;;;;;481.63;445.27;;;14.60;16.00;;;;;;4991874;28;20189;-70
2023/05/02 09:04:53;;;;;;;586.67;540.27;;;15.10;15.10;;;;;;4992293;28;20404;-69
2023/05/02 09:07:18;;;;;;;639.90;587.57;;;15.20;13.30;;;;;;4992336;28;20440;-70
2023/05/02 09:09:44;;;;;;;694.80;638.43;;;15.30;13.30;;;;;;4992014;28;20420;-70
2023/05/02 09:12:09;;;;;;;386.53;354.60;;;15.50;13.40;;;;;;4992283;28;20539;-69
2023/05/02 09:14:35;;;;;;;546.27;504.90;;;15.20;13.30;;;;;;4992066;28;20642;-69
2023/05/02 09:17:01;;;;;;;848.23;775.00;;;15.50;14.40;;;;;;4991871;28;20211;-69
2023/05/02 09:19:26;;;;;;;816.33;746.87;;;16.40;13.10;;;;;;4990844;28;20176;-69
2023/05/02 09:21:57;;;;;;;674.33;615.77;;;16.70;10.70;;;;;;4991902;28;20714;-69
2023/05/02 09:24:24;;;;;;;565.63;517.23;;;17.10;9.50;;;;;;4991885;28;20173;-70
2023/05/02 09:26:58;;;;;;;598.47;548.10;;;17.00;8.70;;;;;;4991825;28;20432;-69
2023/05/02 09:29:23;;;;;;;751.00;686.23;;;17.00;9.10;;;;;;4991742;28;20415;-70
2023/05/02 09:31:49;;;;;;;916.97;837.07;;;16.90;8.50;;;;;;4991758;28;20783;-70
2023/05/02 09:34:16;;;;;;;560.93;516.53;;;16.80;9.70;;;;;;4991945;28;20193;-70
2023/05/02 09:36:44;;;;;;;628.50;573.77;;;16.80;9.60;;;;;;4991797;28;20200;-71
2023/05/02 09:39:15;;;;;;;335.03;311.07;;;17.10;9.10;;;;;;4992005;28;20423;-71
2023/05/02 09:41:45;;;;;;;566.33;519.10;;;17.40;8.40;;;;;;4991745;28;20784;-70
2023/05/02 09:44:13;;;;;;;548.73;506.27;;;17.80;7.30;;;;;;4991725;28;20503;-71
2023/05/02 09:46:44;;;;;;;436.97;400.90;;;17.90;6.70;;;;;;4991988;28;20451;-72
2023/05/02 09:49:10;;;;;;;730.67;668.33;;;17.60;7.50;;;;;;4992234;28;20443;-72
2023/05/02 09:51:36;;;;;;;800.60;729.07;;;17.30;8.90;;;;;;4991519;28;20665;-72
2023/05/02 09:54:02;;;;;;;532.83;488.70;;;17.80;6.50;;;;;;4990510;28;20177;-72
2023/05/02 09:56:27;;;;;;;544.17;499.47;;;18.00;6.20;;;;;;4992359;28;20192;-72
2023/05/02 09:59:15;;;;;;;379.83;351.03;;;18.00;6.20;;;;;;4992572;28;20485;-72
2023/05/02 10:01:41;;;;;;;646.90;592.53;;;18.30;6.40;;;;;;4992540;28;20179;-71
2023/05/02 10:04:17;;;;;;;798.03;727.33;;;17.80;6.10;;;;;;4994778;28;20436;-72
2023/05/02 10:06:43;;;;;;;687.77;628.63;;;17.60;6.50;;;;;;4996050;28;21000;-72
2023/05/02 10:09:11;;;;;;;283.90;260.17;;;17.80;6.50;;;;;;4995764;28;20412;-72
2023/05/02 10:11:40;;;;;;;616.43;566.33;;;18.30;5.90;;;;;;5003313;28;20419;-71
2023/05/02 10:14:09;;;;;;;252.50;235.50;;;18.30;4.40;;;;;;5014641;28;20431;-72
2023/05/02 10:16:37;;;;;;;493.70;455.50;;;18.40;6.40;;;;;;5015270;28;20864;-72
2023/05/02 10:19:08;;;;;;;796.07;725.73;;;18.80;6.70;;;;;;5014001;28;20427;-72
2023/05/02 10:21:35;;;;;;;457.40;421.30;;;18.90;5.00;;;;;;5014800;28;20414;-72
2023/05/02 10:24:03;;;;;;;717.27;655.73;;;18.80;3.60;;;;;;5014841;28;20485;-72
2023/05/02 10:26:28;;;;;;;641.70;586.27;;;18.70;2.90;;;;;;5015460;28;20457;-73
2023/05/02 10:28:58;;;;;;;675.07;618.80;;;18.40;3.30;;;;;;5015956;28;20767;-73
2023/05/02 10:31:25;;;;;;;627.17;573.57;;;17.80;4.00;;;;;;5015926;28;20847;-72
2023/05/02 10:33:54;;;;;;;1026.13;930.80;;;18.00;4.90;;;;;;5015664;28;20472;-73
2023/05/02 10:36:21;;;;;;;488.43;450.17;;;18.40;4.90;;;;;;5015505;28;20501;-72
2023/05/02 10:38:47;;;;;;;445.10;409.33;;;18.90;3.80;;;;;;5014416;28;20554;-73
2023/05/02 10:41:20;;;;;;;598.80;553.93;;;19.10;2.30;;;;;;5015272;28;20450;-72
2023/05/02 10:43:48;;;;;;;176.10;162.87;;;18.70;3.10;;;;;;5015664;28;20550;-72
2023/05/02 10:46:42;;;;;;;491.70;451.23;;;19.00;2.90;;;;;;5044228;22;20485;-70
2023/05/02 10:49:10;;;;;;;610.37;563.77;;;19.10;1.40;;;;;;5053807;28;20423;-70
2023/05/02 10:51:37;;;;;;;466.00;432.03;;;18.70;3.30;;;;;;5053533;28;20402;-70
2023/05/02 10:54:15;;;;;;;518.83;479.30;;;18.90;2.80;;;;;;5053828;28;20406;-70
2023/05/02 10:57:02;;;;;;;555.07;514.97;;;18.80;2.50;;;;;;5053237;28;20933;-71
2023/05/02 10:59:38;;;;;;;693.83;634.37;;;18.60;2.20;;;;;;5053586;28;20423;-70
2023/05/02 11:02:26;;;;;;;379.60;347.40;;;18.40;3.30;;;;;;5050501;28;20413;-70
2023/05/02 11:05:02;;;;;;;610.40;561.43;;;18.30;2.70;;;;;;5053247;28;20526;-69
2023/05/02 11:07:29;;;;;;;546.10;505.77;;;18.20;3.00;;;;;;5053199;28;20502;-68
2023/05/02 11:10:16;;;;;;;459.47;428.13;;;18.10;2.00;;;;;;5053428;28;20773;-68
2023/05/02 11:12:50;;;;;;;399.33;369.20;;;17.90;2.30;;;;;;5051750;28;20931;-68
2023/05/02 11:15:28;;;;;;;607.30;559.20;;;18.00;3.10;;;;;;5052471;28;20401;-68
2023/05/02 11:18:06;;;;;;;539.03;496.50;;;18.20;2.00;;;;;;5053141;28;20974;-68
2023/05/02 11:20:33;;;;;;;413.43;382.07;;;18.50;2.90;;;;;;5053629;28;20427;-68
2023/05/02 11:23:24;;;;;;;531.97;492.70;;;18.80;2.10;;;;;;5052998;28;20409;-68
2023/05/02 11:25:55;;;;;;;539.90;501.40;;;19.20;1.00;;;;;;5053230;28;20410;-68
2023/05/02 11:28:36;;;;;;;610.17;563.63;;;19.10;1.10;;;;;;5053064;28;20478;-68
2023/05/02 11:31:02;;;;;;;553.07;510.87;;;19.20;1.00;;;;;;5053200;28;20459;-69
2023/05/02 11:33:28;;;;;;;493.67;459.67;;;19.00;1.00;;;;;;5052604;28;20409;-67
2023/05/02 11:35:55;;;;;;;599.57;550.50;;;18.90;1.50;;;;;;5052853;28;20413;-69
2023/05/02 11:38:21;;;;;;;676.33;619.27;;;19.00;1.10;;;;;;5052973;28;20194;-69
2023/05/02 11:40:55;;;;;;;469.53;438.60;;;18.80;1.00;;;;;;5053324;28;20901;-71
2023/05/02 11:43:23;;;;;;;674.03;622.77;;;19.00;1.00;;;;;;5052670;28;20912;-69
2023/05/02 11:45:49;;;;;;;460.33;423.10;;;19.30;1.00;;;;;;5052798;28;20401;-69
2023/05/02 11:48:18;;;;;;;492.73;457.77;;;19.20;3.00;;;;;;5052700;28;20530;-69
2023/05/02 11:50:51;;;;;;;516.57;480.83;;;19.70;1.00;;;;;;5052766;28;20632;-69
2023/05/02 11:53:23;;;;;;;584.60;538.27;;;19.80;1.00;;;;;;5052393;28;20405;-69
2023/05/02 11:56:03;;;;;;;502.50;467.27;;;19.70;1.00;;;;;;5052634;28;20499;-69
2023/05/02 11:58:32;;;;;;;588.80;545.13;;;19.40;1.00;;;;;;5052515;28;20456;-69
2023/05/02 12:01:10;;;;;;;464.03;432.20;;;19.10;1.00;;;;;;5052577;28;20414;-69
2023/05/02 12:03:36;;;;;;;502.57;466.50;;;19.10;1.00;;;;;;5050967;28;20420;-70
2023/05/02 12:06:10;;;;;;;412.40;386.60;;;19.30;1.00;;;;;;5049658;28;20933;-69
2023/05/02 12:08:36;;;;;;;597.30;549.33;;;;;;;;;;5046426;28;20178;-68
2023/05/02 12:11:02;;;;;;;549.63;511.10;;;19.00;1.00;;;;;;5051964;28;20433;-69
2023/05/02 12:13:28;;;;;;;548.43;509.67;;;18.60;1.00;;;;;;5048057;28;20453;-69
2023/05/02 12:15:55;;;;;;;534.53;495.77;;;18.40;1.00;;;;;;5045981;28;20197;-68
2023/05/02 12:18:22;;;;;;;612.70;566.20;;;18.00;2.40;;;;;;5041521;28;20453;-69
2023/05/02 12:20:52;;;;;;;366.63;342.40;;;17.90;2.10;;;;;;5032166;28;20488;-69
2023/05/02 12:23:23;;;;;;;386.30;359.73;;;17.50;1.50;;;;;;5031495;28;20409;-69